sensor_id;sensor_type;location;lat;lon;timestamp;P1;durP1;ratioP1;P2;durP2;ratioP2
31686;SDS011;18285;51.330;4.946;2023-03-01T00:01:19;3.47;;;2.03;;
31686;SDS011;18285;51.330;4.946;2023-03-01T00:25:32;1.95;;;1.52;;
31686;SDS011;18285;51.330;4.946;2023-03-01T00:49:42;2.25;;;1.85;;
31686;SDS011;18285;51.330;4.946;2023-03-01T01:13:53;3.05;;;1.70;;
31686;SDS011;18285;51.330;4.946;2023-03-01T01:38:04;2.28;;;1.60;;
31686;SDS011;18285;51.330;4.946;2023-03-01T02:02:14;1.60;;;1.50;;
31686;SDS011;18285;51.330;4.946;2023-03-01T02:27:07;2.08;;;1.60;;
31686;SDS011;18285;51.330;4.946;2023-03-01T02:51:41;2.67;;;1.92;;
31686;SDS011;18285;51.330;4.946;2023-03-01T03:15:51;1.60;;;1.50;;
31686;SDS011;18285;51.330;4.946;2023-03-01T03:40:02;1.48;;;1.27;;
31686;SDS011;18285;51.330;4.946;2023-03-01T04:04:13;2.35;;;1.60;;
31686;SDS011;18285;51.330;4.946;2023-03-01T04:28:32;1.85;;;1.50;;
31686;SDS011;18285;51.330;4.946;2023-03-01T04:52:44;1.98;;;1.50;;
31686;SDS011;18285;51.330;4.946;2023-03-01T05:16:54;2.55;;;1.27;;
31686;SDS011;18285;51.330;4.946;2023-03-01T05:41:05;1.88;;;1.58;;
31686;SDS011;18285;51.330;4.946;2023-03-01T06:05:26;2.15;;;1.58;;
31686;SDS011;18285;51.330;4.946;2023-03-01T06:29:37;20.13;;;6.97;;
31686;SDS011;18285;51.330;4.946;2023-03-01T06:53:48;15.18;;;4.18;;
31686;SDS011;18285;51.330;4.946;2023-03-01T07:17:59;9.68;;;3.33;;
31686;SDS011;18285;51.330;4.946;2023-03-01T07:42:09;5.20;;;2.85;;
31686;SDS011;18285;51.330;4.946;2023-03-01T08:06:20;3.55;;;2.47;;
31686;SDS011;18285;51.330;4.946;2023-03-01T08:30:31;3.45;;;2.15;;
31686;SDS011;18285;51.330;4.946;2023-03-01T08:54:42;3.35;;;2.13;;
31686;SDS011;18285;51.330;4.946;2023-03-01T09:18:53;2.40;;;1.80;;
31686;SDS011;18285;51.330;4.946;2023-03-01T09:43:11;2.30;;;1.63;;
31686;SDS011;18285;51.330;4.946;2023-03-01T10:07:44;2.13;;;1.60;;
31686;SDS011;18285;51.330;4.946;2023-03-01T10:31:56;1.48;;;1.17;;
31686;SDS011;18285;51.330;4.946;2023-03-01T10:56:08;2.28;;;1.63;;
31686;SDS011;18285;51.330;4.946;2023-03-01T11:20:24;14.93;;;4.15;;
31686;SDS011;18285;51.330;4.946;2023-03-01T11:44:46;7.80;;;3.00;;
31686;SDS011;18285;51.330;4.946;2023-03-01T12:09:13;7.50;;;2.30;;
31686;SDS011;18285;51.330;4.946;2023-03-01T12:58:06;7.00;;;4.07;;
31686;SDS011;18285;51.330;4.946;2023-03-01T13:22:25;12.88;;;4.93;;
31686;SDS011;18285;51.330;4.946;2023-03-01T13:46:42;12.10;;;3.85;;
31686;SDS011;18285;51.330;4.946;2023-03-01T14:35:26;6.50;;;3.08;;
31686;SDS011;18285;51.330;4.946;2023-03-01T14:59:39;7.47;;;4.20;;
31686;SDS011;18285;51.330;4.946;2023-03-01T15:23:57;7.28;;;3.03;;
31686;SDS011;18285;51.330;4.946;2023-03-01T15:48:18;4.53;;;2.40;;
31686;SDS011;18285;51.330;4.946;2023-03-01T16:12:31;5.82;;;3.90;;
31686;SDS011;18285;51.330;4.946;2023-03-01T16:36:42;4.30;;;2.92;;
31686;SDS011;18285;51.330;4.946;2023-03-01T17:00:53;4.32;;;2.97;;
31686;SDS011;18285;51.330;4.946;2023-03-01T17:49:20;5.25;;;3.80;;
31686;SDS011;18285;51.330;4.946;2023-03-01T18:13:31;6.85;;;4.50;;
31686;SDS011;18285;51.330;4.946;2023-03-01T18:37:42;4.70;;;3.60;;
31686;SDS011;18285;51.330;4.946;2023-03-01T19:01:52;6.13;;;3.95;;
31686;SDS011;18285;51.330;4.946;2023-03-01T19:26:04;5.97;;;4.55;;
31686;SDS011;18285;51.330;4.946;2023-03-01T19:50:20;13.23;;;7.13;;
31686;SDS011;18285;51.330;4.946;2023-03-01T20:14:31;9.52;;;4.43;;
31686;SDS011;18285;51.330;4.946;2023-03-01T20:38:41;7.75;;;4.47;;
31686;SDS011;18285;51.330;4.946;2023-03-01T21:02:52;8.18;;;3.95;;
31686;SDS011;18285;51.330;4.946;2023-03-01T21:27:03;9.45;;;4.03;;
31686;SDS011;18285;51.330;4.946;2023-03-01T21:51:17;5.78;;;3.85;;
31686;SDS011;18285;51.330;4.946;2023-03-01T22:15:28;4.78;;;3.40;;
31686;SDS011;18285;51.330;4.946;2023-03-01T22:39:39;5.75;;;3.55;;
31686;SDS011;18285;51.330;4.946;2023-03-01T23:03:50;4.43;;;2.90;;
31686;SDS011;18285;51.330;4.946;2023-03-01T23:28:01;3.58;;;2.67;;
31686;SDS011;18285;51.330;4.946;2023-03-01T23:52:12;2.80;;;2.50;;
